sensor_id;sensor_type;location;lat;lon;timestamp;temperature;humidity
26479;DHT22;14163;-26.142;27.992;2023-07-31T06:57:05;6.20;99.90
26479;DHT22;14163;-26.142;27.992;2023-07-31T06:59:36;6.40;99.90
26479;DHT22;14163;-26.142;27.992;2023-07-31T07:02:06;7.10;99.90
26479;DHT22;14163;-26.142;27.992;2023-07-31T07:04:35;8.00;99.90
26479;DHT22;14163;-26.142;27.992;2023-07-31T07:07:04;8.70;98.60
26479;DHT22;14163;-26.142;27.992;2023-07-31T07:09:35;9.30;96.10
26479;DHT22;14163;-26.142;27.992;2023-07-31T07:12:07;9.80;93.90
26479;DHT22;14163;-26.142;27.992;2023-07-31T07:14:37;10.10;91.80
26479;DHT22;14163;-26.142;27.992;2023-07-31T07:17:06;10.30;90.80
26479;DHT22;14163;-26.142;27.992;2023-07-31T07:19:36;10.40;90.20
26479;DHT22;14163;-26.142;27.992;2023-07-31T07:22:05;10.50;88.90
26479;DHT22;14163;-26.142;27.992;2023-07-31T07:24:35;10.60;88.50
26479;DHT22;14163;-26.142;27.992;2023-07-31T07:27:06;10.70;87.50
26479;DHT22;14163;-26.142;27.992;2023-07-31T07:29:36;10.80;87.00
26479;DHT22;14163;-26.142;27.992;2023-07-31T07:32:05;10.90;87.50
26479;DHT22;14163;-26.142;27.992;2023-07-31T07:34:36;11.00;86.00
26479;DHT22;14163;-26.142;27.992;2023-07-31T07:37:06;11.00;85.50
26479;DHT22;14163;-26.142;27.992;2023-07-31T07:39:35;11.10;85.00
26479;DHT22;14163;-26.142;27.992;2023-07-31T07:42:06;11.10;83.50
26479;DHT22;14163;-26.142;27.992;2023-07-31T07:44:35;11.10;84.30
26479;DHT22;14163;-26.142;27.992;2023-07-31T07:47:05;11.20;83.90
26479;DHT22;14163;-26.142;27.992;2023-07-31T07:49:34;11.30;83.90
26479;DHT22;14163;-26.142;27.992;2023-07-31T07:52:04;11.50;81.80
26479;DHT22;14163;-26.142;27.992;2023-07-31T07:54:33;11.60;81.00
26479;DHT22;14163;-26.142;27.992;2023-07-31T07:57:03;11.70;81.00
26479;DHT22;14163;-26.142;27.992;2023-07-31T07:59:35;11.80;81.10
26479;DHT22;14163;-26.142;27.992;2023-07-31T08:02:04;11.90;80.30
26479;DHT22;14163;-26.142;27.992;2023-07-31T08:04:33;12.00;79.30
26479;DHT22;14163;-26.142;27.992;2023-07-31T08:07:03;12.10;78.00
26479;DHT22;14163;-26.142;27.992;2023-07-31T08:09:32;12.10;77.10
26479;DHT22;14163;-26.142;27.992;2023-07-31T08:12:02;12.20;76.70
26479;DHT22;14163;-26.142;27.992;2023-07-31T08:14:33;12.30;76.10
26479;DHT22;14163;-26.142;27.992;2023-07-31T08:17:02;12.30;74.30
26479;DHT22;14163;-26.142;27.992;2023-07-31T08:19:32;12.40;74.60
26479;DHT22;14163;-26.142;27.992;2023-07-31T08:22:01;12.40;73.60
26479;DHT22;14163;-26.142;27.992;2023-07-31T08:24:31;12.50;74.80
26479;DHT22;14163;-26.142;27.992;2023-07-31T08:27:00;12.50;74.80
26479;DHT22;14163;-26.142;27.992;2023-07-31T08:29:29;12.60;74.10
26479;DHT22;14163;-26.142;27.992;2023-07-31T08:32:01;12.70;73.20
26479;DHT22;14163;-26.142;27.992;2023-07-31T08:34:30;12.90;72.70
26479;DHT22;14163;-26.142;27.992;2023-07-31T08:37:00;12.90;74.00
26479;DHT22;14163;-26.142;27.992;2023-07-31T08:39:29;13.10;73.20
26479;DHT22;14163;-26.142;27.992;2023-07-31T08:42:01;13.20;70.50
26479;DHT22;14163;-26.142;27.992;2023-07-31T08:44:31;13.30;70.00
26479;DHT22;14163;-26.142;27.992;2023-07-31T08:47:03;13.30;70.20
26479;DHT22;14163;-26.142;27.992;2023-07-31T08:49:34;13.40;70.00
26479;DHT22;14163;-26.142;27.992;2023-07-31T08:52:04;13.50;70.10
26479;DHT22;14163;-26.142;27.992;2023-07-31T08:54:33;13.60;74.60
26479;DHT22;14163;-26.142;27.992;2023-07-31T08:57:03;13.80;70.50
26479;DHT22;14163;-26.142;27.992;2023-07-31T08:59:35;13.90;69.50
26479;DHT22;14163;-26.142;27.992;2023-07-31T09:02:07;14.10;69.10
26479;DHT22;14163;-26.142;27.992;2023-07-31T09:04:37;14.30;69.00
26479;DHT22;14163;-26.142;27.992;2023-07-31T09:07:07;14.40;66.20
26479;DHT22;14163;-26.142;27.992;2023-07-31T09:09:36;14.60;66.50
26479;DHT22;14163;-26.142;27.992;2023-07-31T09:12:06;14.70;66.80
26479;DHT22;14163;-26.142;27.992;2023-07-31T09:14:36;14.90;65.70
26479;DHT22;14163;-26.142;27.992;2023-07-31T09:17:08;15.10;64.50
26479;DHT22;14163;-26.142;27.992;2023-07-31T09:19:37;15.10;62.80
26479;DHT22;14163;-26.142;27.992;2023-07-31T09:22:07;15.30;62.00
26479;DHT22;14163;-26.142;27.992;2023-07-31T09:24:36;15.60;61.60
26479;DHT22;14163;-26.142;27.992;2023-07-31T09:27:06;15.80;60.00
26479;DHT22;14163;-26.142;27.992;2023-07-31T09:29:36;16.00;58.70
26479;DHT22;14163;-26.142;27.992;2023-07-31T09:32:07;16.30;57.60
26479;DHT22;14163;-26.142;27.992;2023-07-31T09:34:44;16.80;57.10
26479;DHT22;14163;-26.142;27.992;2023-07-31T09:37:13;17.30;56.80
26479;DHT22;14163;-26.142;27.992;2023-07-31T09:39:46;17.80;55.30
26479;DHT22;14163;-26.142;27.992;2023-07-31T09:42:25;18.30;55.20
26479;DHT22;14163;-26.142;27.992;2023-07-31T09:45:07;18.70;54.70
26479;DHT22;14163;-26.142;27.992;2023-07-31T09:47:39;19.10;55.00
26479;DHT22;14163;-26.142;27.992;2023-07-31T09:50:08;19.60;54.40
26479;DHT22;14163;-26.142;27.992;2023-07-31T09:52:39;19.90;52.40
26479;DHT22;14163;-26.142;27.992;2023-07-31T09:55:09;20.20;52.10
26479;DHT22;14163;-26.142;27.992;2023-07-31T09:57:44;20.40;50.90
26479;DHT22;14163;-26.142;27.992;2023-07-31T10:00:14;20.80;51.20
26479;DHT22;14163;-26.142;27.992;2023-07-31T10:02:46;21.00;49.90
26479;DHT22;14163;-26.142;27.992;2023-07-31T10:05:16;21.30;50.20
26479;DHT22;14163;-26.142;27.992;2023-07-31T10:07:53;21.50;49.40
26479;DHT22;14163;-26.142;27.992;2023-07-31T10:10:23;21.30;48.60
26479;DHT22;14163;-26.142;27.992;2023-07-31T10:12:53;21.60;48.20
26479;DHT22;14163;-26.142;27.992;2023-07-31T10:15:22;21.80;46.50
26479;DHT22;14163;-26.142;27.992;2023-07-31T10:17:54;21.80;45.80
26479;DHT22;14163;-26.142;27.992;2023-07-31T10:20:25;21.80;46.00
26479;DHT22;14163;-26.142;27.992;2023-07-31T10:22:55;21.90;46.30
26479;DHT22;14163;-26.142;27.992;2023-07-31T10:25:27;22.20;46.40
26479;DHT22;14163;-26.142;27.992;2023-07-31T10:27:58;22.40;46.40
26479;DHT22;14163;-26.142;27.992;2023-07-31T10:30:28;22.60;46.20
26479;DHT22;14163;-26.142;27.992;2023-07-31T10:33:00;22.70;45.70
26479;DHT22;14163;-26.142;27.992;2023-07-31T10:35:30;22.80;50.10
26479;DHT22;14163;-26.142;27.992;2023-07-31T10:38:10;22.80;48.70
26479;DHT22;14163;-26.142;27.992;2023-07-31T10:40:40;22.80;46.00
26479;DHT22;14163;-26.142;27.992;2023-07-31T10:43:09;23.10;46.10
26479;DHT22;14163;-26.142;27.992;2023-07-31T10:45:52;23.30;47.20
26479;DHT22;14163;-26.142;27.992;2023-07-31T10:48:25;23.50;46.70
26479;DHT22;14163;-26.142;27.992;2023-07-31T10:51:01;23.60;45.70
26479;DHT22;14163;-26.142;27.992;2023-07-31T10:53:35;23.70;46.20
26479;DHT22;14163;-26.142;27.992;2023-07-31T10:56:05;23.90;46.20
26479;DHT22;14163;-26.142;27.992;2023-07-31T10:58:35;24.00;45.80
26479;DHT22;14163;-26.142;27.992;2023-07-31T11:01:05;24.00;45.60
26479;DHT22;14163;-26.142;27.992;2023-07-31T11:03:46;24.10;44.90
26479;DHT22;14163;-26.142;27.992;2023-07-31T11:06:16;24.30;44.20
26479;DHT22;14163;-26.142;27.992;2023-07-31T11:08:47;24.30;43.10
26479;DHT22;14163;-26.142;27.992;2023-07-31T11:11:17;24.40;43.20
26479;DHT22;14163;-26.142;27.992;2023-07-31T11:13:47;24.70;43.40
26479;DHT22;14163;-26.142;27.992;2023-07-31T11:16:19;25.00;43.10
26479;DHT22;14163;-26.142;27.992;2023-07-31T11:18:51;25.10;42.80
26479;DHT22;14163;-26.142;27.992;2023-07-31T11:21:23;25.30;42.30
26479;DHT22;14163;-26.142;27.992;2023-07-31T11:23:53;25.40;42.90
26479;DHT22;14163;-26.142;27.992;2023-07-31T11:26:25;25.40;41.90
26479;DHT22;14163;-26.142;27.992;2023-07-31T11:28:54;25.60;41.90
26479;DHT22;14163;-26.142;27.992;2023-07-31T11:31:23;25.80;41.60
26479;DHT22;14163;-26.142;27.992;2023-07-31T11:34:05;25.80;41.20
26479;DHT22;14163;-26.142;27.992;2023-07-31T11:36:34;25.70;40.70
26479;DHT22;14163;-26.142;27.992;2023-07-31T11:39:08;25.40;40.80
26479;DHT22;14163;-26.142;27.992;2023-07-31T11:41:41;24.90;41.40
26479;DHT22;14163;-26.142;27.992;2023-07-31T11:44:11;24.60;41.80
26479;DHT22;14163;-26.142;27.992;2023-07-31T11:46:41;24.20;42.00
26479;DHT22;14163;-26.142;27.992;2023-07-31T11:49:14;23.80;42.00
26479;DHT22;14163;-26.142;27.992;2023-07-31T11:51:44;23.60;42.70
26479;DHT22;14163;-26.142;27.992;2023-07-31T11:54:14;23.30;42.60
26479;DHT22;14163;-26.142;27.992;2023-07-31T11:56:44;23.10;42.10
26479;DHT22;14163;-26.142;27.992;2023-07-31T11:59:14;22.80;42.00
26479;DHT22;14163;-26.142;27.992;2023-07-31T12:01:43;22.60;42.20
26479;DHT22;14163;-26.142;27.992;2023-07-31T12:04:15;22.40;42.80
26479;DHT22;14163;-26.142;27.992;2023-07-31T12:06:44;22.30;42.90
26479;DHT22;14163;-26.142;27.992;2023-07-31T12:09:15;22.30;43.00
26479;DHT22;14163;-26.142;27.992;2023-07-31T12:11:44;22.10;42.80
26479;DHT22;14163;-26.142;27.992;2023-07-31T12:14:24;22.10;42.30
26479;DHT22;14163;-26.142;27.992;2023-07-31T12:16:56;22.10;42.60
26479;DHT22;14163;-26.142;27.992;2023-07-31T12:19:28;21.90;42.90
26479;DHT22;14163;-26.142;27.992;2023-07-31T12:21:59;21.90;42.40
26479;DHT22;14163;-26.142;27.992;2023-07-31T12:24:28;21.80;42.50
26479;DHT22;14163;-26.142;27.992;2023-07-31T12:26:58;21.70;43.10
26479;DHT22;14163;-26.142;27.992;2023-07-31T12:29:34;21.60;43.20
26479;DHT22;14163;-26.142;27.992;2023-07-31T12:32:04;21.60;43.20
26479;DHT22;14163;-26.142;27.992;2023-07-31T12:34:42;21.60;43.90
26479;DHT22;14163;-26.142;27.992;2023-07-31T12:37:12;21.70;43.80
26479;DHT22;14163;-26.142;27.992;2023-07-31T12:39:41;21.60;43.50
26479;DHT22;14163;-26.142;27.992;2023-07-31T12:42:11;21.50;43.60
26479;DHT22;14163;-26.142;27.992;2023-07-31T12:44:40;21.60;43.50
26479;DHT22;14163;-26.142;27.992;2023-07-31T12:47:10;21.50;42.50
26479;DHT22;14163;-26.142;27.992;2023-07-31T12:49:41;21.60;42.80
26479;DHT22;14163;-26.142;27.992;2023-07-31T12:52:11;21.50;42.10
26479;DHT22;14163;-26.142;27.992;2023-07-31T12:54:40;21.50;42.30
26479;DHT22;14163;-26.142;27.992;2023-07-31T12:57:10;21.50;42.20
26479;DHT22;14163;-26.142;27.992;2023-07-31T12:59:39;21.50;42.20
26479;DHT22;14163;-26.142;27.992;2023-07-31T13:02:08;21.40;42.40
26479;DHT22;14163;-26.142;27.992;2023-07-31T13:04:41;21.50;43.50
26479;DHT22;14163;-26.142;27.992;2023-07-31T13:07:10;21.50;43.80
26479;DHT22;14163;-26.142;27.992;2023-07-31T13:09:40;21.60;43.40
26479;DHT22;14163;-26.142;27.992;2023-07-31T13:12:09;21.60;42.90
26479;DHT22;14163;-26.142;27.992;2023-07-31T13:14:39;21.60;43.10
26479;DHT22;14163;-26.142;27.992;2023-07-31T13:17:08;21.50;43.30
26479;DHT22;14163;-26.142;27.992;2023-07-31T13:19:38;21.50;43.40
26479;DHT22;14163;-26.142;27.992;2023-07-31T13:22:10;21.50;43.80
26479;DHT22;14163;-26.142;27.992;2023-07-31T13:24:43;21.50;43.80
26479;DHT22;14163;-26.142;27.992;2023-07-31T13:27:12;21.60;43.80
26479;DHT22;14163;-26.142;27.992;2023-07-31T13:29:44;21.60;43.40
26479;DHT22;14163;-26.142;27.992;2023-07-31T13:32:13;21.50;43.00
26479;DHT22;14163;-26.142;27.992;2023-07-31T13:34:43;21.50;43.10
26479;DHT22;14163;-26.142;27.992;2023-07-31T13:37:14;21.60;43.30
26479;DHT22;14163;-26.142;27.992;2023-07-31T13:39:44;21.60;43.70
26479;DHT22;14163;-26.142;27.992;2023-07-31T13:42:14;21.70;43.30
26479;DHT22;14163;-26.142;27.992;2023-07-31T13:44:44;21.70;43.10
26479;DHT22;14163;-26.142;27.992;2023-07-31T13:47:13;21.70;43.20
26479;DHT22;14163;-26.142;27.992;2023-07-31T13:49:43;21.80;43.20
26479;DHT22;14163;-26.142;27.992;2023-07-31T13:52:13;21.80;43.30
26479;DHT22;14163;-26.142;27.992;2023-07-31T13:54:43;21.70;46.10
26479;DHT22;14163;-26.142;27.992;2023-07-31T13:57:12;21.60;44.10
26479;DHT22;14163;-26.142;27.992;2023-07-31T13:59:47;21.50;44.60
26479;DHT22;14163;-26.142;27.992;2023-07-31T14:02:17;21.50;45.00
26479;DHT22;14163;-26.142;27.992;2023-07-31T14:04:49;21.50;46.70
26479;DHT22;14163;-26.142;27.992;2023-07-31T14:07:30;21.50;45.10
26479;DHT22;14163;-26.142;27.992;2023-07-31T14:10:07;21.60;45.80
26479;DHT22;14163;-26.142;27.992;2023-07-31T14:12:55;21.70;44.60
26479;DHT22;14163;-26.142;27.992;2023-07-31T14:15:27;21.80;45.20
26479;DHT22;14163;-26.142;27.992;2023-07-31T14:17:59;21.80;46.80
26479;DHT22;14163;-26.142;27.992;2023-07-31T14:23:30;21.80;44.50
26479;DHT22;14163;-26.142;27.992;2023-07-31T14:26:00;21.80;46.60
26479;DHT22;14163;-26.142;27.992;2023-07-31T14:28:30;21.80;47.90
26479;DHT22;14163;-26.142;27.992;2023-07-31T14:30:59;21.70;44.70
26479;DHT22;14163;-26.142;27.992;2023-07-31T14:33:28;21.60;45.00
26479;DHT22;14163;-26.142;27.992;2023-07-31T14:35:57;21.50;48.00
26479;DHT22;14163;-26.142;27.992;2023-07-31T14:38:29;21.50;44.80
26479;DHT22;14163;-26.142;27.992;2023-07-31T14:40:58;21.40;44.70
26479;DHT22;14163;-26.142;27.992;2023-07-31T14:43:27;21.40;44.10
26479;DHT22;14163;-26.142;27.992;2023-07-31T14:45:57;21.50;44.20
26479;DHT22;14163;-26.142;27.992;2023-07-31T14:48:27;21.50;43.70
26479;DHT22;14163;-26.142;27.992;2023-07-31T14:50:56;21.50;43.20
26479;DHT22;14163;-26.142;27.992;2023-07-31T14:53:35;21.40;43.20
26479;DHT22;14163;-26.142;27.992;2023-07-31T14:56:05;21.40;43.50
26479;DHT22;14163;-26.142;27.992;2023-07-31T14:58:35;21.40;43.30
26479;DHT22;14163;-26.142;27.992;2023-07-31T15:01:05;21.40;43.00
26479;DHT22;14163;-26.142;27.992;2023-07-31T15:03:34;21.30;42.70
26479;DHT22;14163;-26.142;27.992;2023-07-31T15:06:03;21.20;42.70
26479;DHT22;14163;-26.142;27.992;2023-07-31T15:08:36;21.10;42.60
26479;DHT22;14163;-26.142;27.992;2023-07-31T15:11:06;21.00;43.80
26479;DHT22;14163;-26.142;27.992;2023-07-31T15:13:36;21.00;43.40
26479;DHT22;14163;-26.142;27.992;2023-07-31T15:16:05;20.90;43.40
26479;DHT22;14163;-26.142;27.992;2023-07-31T15:18:34;20.90;43.20
26479;DHT22;14163;-26.142;27.992;2023-07-31T15:21:04;20.80;43.30
26479;DHT22;14163;-26.142;27.992;2023-07-31T15:23:37;20.70;43.20
26479;DHT22;14163;-26.142;27.992;2023-07-31T15:26:07;20.70;43.20
26479;DHT22;14163;-26.142;27.992;2023-07-31T15:28:36;20.60;43.70
26479;DHT22;14163;-26.142;27.992;2023-07-31T15:31:05;20.60;44.80
26479;DHT22;14163;-26.142;27.992;2023-07-31T15:33:36;20.50;45.20
26479;DHT22;14163;-26.142;27.992;2023-07-31T15:36:05;20.40;44.60
26479;DHT22;14163;-26.142;27.992;2023-07-31T15:38:36;20.50;45.70
26479;DHT22;14163;-26.142;27.992;2023-07-31T15:41:05;20.50;45.40
26479;DHT22;14163;-26.142;27.992;2023-07-31T15:43:35;20.40;45.30
26479;DHT22;14163;-26.142;27.992;2023-07-31T15:46:04;20.30;45.10
26479;DHT22;14163;-26.142;27.992;2023-07-31T15:48:33;20.30;45.40
26479;DHT22;14163;-26.142;27.992;2023-07-31T15:51:04;20.30;45.70
26479;DHT22;14163;-26.142;27.992;2023-07-31T15:53:38;20.30;45.20
26479;DHT22;14163;-26.142;27.992;2023-07-31T15:56:07;20.30;45.50
26479;DHT22;14163;-26.142;27.992;2023-07-31T15:58:36;20.30;44.40
26479;DHT22;14163;-26.142;27.992;2023-07-31T16:01:06;20.20;44.50
26479;DHT22;14163;-26.142;27.992;2023-07-31T16:03:35;20.10;44.60
26479;DHT22;14163;-26.142;27.992;2023-07-31T16:06:04;20.00;44.50
26479;DHT22;14163;-26.142;27.992;2023-07-31T16:08:36;19.90;44.70
26479;DHT22;14163;-26.142;27.992;2023-07-31T16:11:08;19.90;44.80
26479;DHT22;14163;-26.142;27.992;2023-07-31T16:13:37;19.80;44.70
26479;DHT22;14163;-26.142;27.992;2023-07-31T16:16:07;19.80;44.70
26479;DHT22;14163;-26.142;27.992;2023-07-31T16:18:36;19.70;44.50
26479;DHT22;14163;-26.142;27.992;2023-07-31T16:21:06;19.60;44.70
26479;DHT22;14163;-26.142;27.992;2023-07-31T16:23:37;19.50;44.60
26479;DHT22;14163;-26.142;27.992;2023-07-31T16:26:06;19.40;44.50
26479;DHT22;14163;-26.142;27.992;2023-07-31T16:28:35;19.40;44.50
26479;DHT22;14163;-26.142;27.992;2023-07-31T16:31:05;19.30;44.40
26479;DHT22;14163;-26.142;27.992;2023-07-31T16:33:34;19.30;44.40
26479;DHT22;14163;-26.142;27.992;2023-07-31T16:36:04;19.30;44.60
26479;DHT22;14163;-26.142;27.992;2023-07-31T16:38:33;19.20;44.80
26479;DHT22;14163;-26.142;27.992;2023-07-31T16:41:04;19.20;45.10
26479;DHT22;14163;-26.142;27.992;2023-07-31T16:43:34;19.10;45.00
26479;DHT22;14163;-26.142;27.992;2023-07-31T16:46:04;19.10;45.20
26479;DHT22;14163;-26.142;27.992;2023-07-31T16:48:33;19.00;45.50
26479;DHT22;14163;-26.142;27.992;2023-07-31T16:51:03;18.90;45.70
26479;DHT22;14163;-26.142;27.992;2023-07-31T16:53:32;18.80;46.00
26479;DHT22;14163;-26.142;27.992;2023-07-31T16:56:05;18.80;46.30
26479;DHT22;14163;-26.142;27.992;2023-07-31T16:58:35;18.70;46.20
26479;DHT22;14163;-26.142;27.992;2023-07-31T17:01:10;18.70;46.50
26479;DHT22;14163;-26.142;27.992;2023-07-31T17:03:39;19.60;47.20
26479;DHT22;14163;-26.142;27.992;2023-07-31T17:06:10;18.50;46.50
26479;DHT22;14163;-26.142;27.992;2023-07-31T17:08:40;18.40;46.40
26479;DHT22;14163;-26.142;27.992;2023-07-31T17:11:13;18.30;46.40
26479;DHT22;14163;-26.142;27.992;2023-07-31T17:13:42;18.30;46.20
26479;DHT22;14163;-26.142;27.992;2023-07-31T17:16:12;18.20;46.10
26479;DHT22;14163;-26.142;27.992;2023-07-31T17:18:42;18.10;46.20
26479;DHT22;14163;-26.142;27.992;2023-07-31T17:21:12;18.10;46.20
26479;DHT22;14163;-26.142;27.992;2023-07-31T17:23:42;18.00;46.20
26479;DHT22;14163;-26.142;27.992;2023-07-31T17:26:13;18.10;46.30
26479;DHT22;14163;-26.142;27.992;2023-07-31T17:28:42;18.00;46.30
26479;DHT22;14163;-26.142;27.992;2023-07-31T17:31:12;17.90;46.30
26479;DHT22;14163;-26.142;27.992;2023-07-31T17:33:41;17.90;46.50
26479;DHT22;14163;-26.142;27.992;2023-07-31T17:36:16;17.90;46.50
26479;DHT22;14163;-26.142;27.992;2023-07-31T17:38:48;17.80;46.70
26479;DHT22;14163;-26.142;27.992;2023-07-31T17:41:20;17.70;46.70
26479;DHT22;14163;-26.142;27.992;2023-07-31T17:43:51;17.50;46.80
26479;DHT22;14163;-26.142;27.992;2023-07-31T17:46:20;17.40;46.90
26479;DHT22;14163;-26.142;27.992;2023-07-31T17:48:52;17.40;46.80
26479;DHT22;14163;-26.142;27.992;2023-07-31T17:51:24;17.40;47.00
26479;DHT22;14163;-26.142;27.992;2023-07-31T17:53:54;17.30;47.00
26479;DHT22;14163;-26.142;27.992;2023-07-31T17:56:26;17.20;47.00
26479;DHT22;14163;-26.142;27.992;2023-07-31T17:58:56;17.20;47.30
26479;DHT22;14163;-26.142;27.992;2023-07-31T18:01:25;17.20;47.60
26479;DHT22;14163;-26.142;27.992;2023-07-31T18:03:54;17.10;47.80
26479;DHT22;14163;-26.142;27.992;2023-07-31T20:05:09;10.70;53.10
26479;DHT22;14163;-26.142;27.992;2023-07-31T20:07:40;10.80;53.80
26479;DHT22;14163;-26.142;27.992;2023-07-31T20:10:10;11.50;53.30
26479;DHT22;14163;-26.142;27.992;2023-07-31T20:12:47;12.20;52.50
26479;DHT22;14163;-26.142;27.992;2023-07-31T20:15:27;13.00;51.90
26479;DHT22;14163;-26.142;27.992;2023-07-31T20:17:56;13.60;51.20
26479;DHT22;14163;-26.142;27.992;2023-07-31T20:20:32;13.90;51.30
26479;DHT22;14163;-26.142;27.992;2023-07-31T20:23:02;14.30;50.80
26479;DHT22;14163;-26.142;27.992;2023-07-31T20:25:33;14.40;50.40
26479;DHT22;14163;-26.142;27.992;2023-07-31T20:28:03;14.70;50.30
26479;DHT22;14163;-26.142;27.992;2023-07-31T20:30:32;14.80;50.20
26479;DHT22;14163;-26.142;27.992;2023-07-31T20:33:01;14.70;50.20
26479;DHT22;14163;-26.142;27.992;2023-07-31T20:35:34;14.80;50.60
26479;DHT22;14163;-26.142;27.992;2023-07-31T20:38:04;14.90;50.80
26479;DHT22;14163;-26.142;27.992;2023-07-31T20:40:34;14.80;50.40
26479;DHT22;14163;-26.142;27.992;2023-07-31T20:43:03;14.90;51.20
26479;DHT22;14163;-26.142;27.992;2023-07-31T20:45:34;14.90;50.80
26479;DHT22;14163;-26.142;27.992;2023-07-31T20:48:05;14.90;50.90
26479;DHT22;14163;-26.142;27.992;2023-07-31T20:53:07;14.80;51.40
26479;DHT22;14163;-26.142;27.992;2023-07-31T20:55:38;14.80;51.70
26479;DHT22;14163;-26.142;27.992;2023-07-31T20:58:08;14.70;51.60
26479;DHT22;14163;-26.142;27.992;2023-07-31T21:00:38;14.70;51.50
26479;DHT22;14163;-26.142;27.992;2023-07-31T21:03:10;14.70;51.70
26479;DHT22;14163;-26.142;27.992;2023-07-31T21:05:49;14.60;52.20
26479;DHT22;14163;-26.142;27.992;2023-07-31T21:08:19;14.50;52.30
26479;DHT22;14163;-26.142;27.992;2023-07-31T21:10:50;14.50;52.20
26479;DHT22;14163;-26.142;27.992;2023-07-31T21:13:19;14.50;53.20
26479;DHT22;14163;-26.142;27.992;2023-07-31T21:15:49;14.60;52.70
26479;DHT22;14163;-26.142;27.992;2023-07-31T21:18:19;14.60;53.10
26479;DHT22;14163;-26.142;27.992;2023-07-31T21:20:51;14.50;52.90
26479;DHT22;14163;-26.142;27.992;2023-07-31T21:23:21;14.50;53.00
26479;DHT22;14163;-26.142;27.992;2023-07-31T21:25:51;14.50;53.00
26479;DHT22;14163;-26.142;27.992;2023-07-31T21:28:21;14.50;53.50
26479;DHT22;14163;-26.142;27.992;2023-07-31T21:30:51;14.50;53.30
26479;DHT22;14163;-26.142;27.992;2023-07-31T21:33:20;14.50;53.30
26479;DHT22;14163;-26.142;27.992;2023-07-31T21:35:52;14.40;53.50
26479;DHT22;14163;-26.142;27.992;2023-07-31T21:38:22;14.50;53.50
26479;DHT22;14163;-26.142;27.992;2023-07-31T21:40:51;14.50;53.70
26479;DHT22;14163;-26.142;27.992;2023-07-31T21:43:21;14.40;53.70
26479;DHT22;14163;-26.142;27.992;2023-07-31T21:45:51;14.50;53.80
26479;DHT22;14163;-26.142;27.992;2023-07-31T21:48:20;14.50;53.70
26479;DHT22;14163;-26.142;27.992;2023-07-31T21:50:52;14.50;54.40
26479;DHT22;14163;-26.142;27.992;2023-07-31T21:53:22;14.50;54.10
26479;DHT22;14163;-26.142;27.992;2023-07-31T21:55:51;14.50;53.80
26479;DHT22;14163;-26.142;27.992;2023-07-31T21:58:21;14.50;53.80
26479;DHT22;14163;-26.142;27.992;2023-07-31T22:00:50;14.50;53.60
26479;DHT22;14163;-26.142;27.992;2023-07-31T22:03:21;14.40;53.10
26479;DHT22;14163;-26.142;27.992;2023-07-31T22:05:52;14.50;52.90
26479;DHT22;14163;-26.142;27.992;2023-07-31T22:08:22;14.40;52.90
26479;DHT22;14163;-26.142;27.992;2023-07-31T22:10:51;14.40;52.70
26479;DHT22;14163;-26.142;27.992;2023-07-31T22:13:21;14.40;52.50
26479;DHT22;14163;-26.142;27.992;2023-07-31T22:15:50;14.30;52.60
26479;DHT22;14163;-26.142;27.992;2023-07-31T22:18:20;14.40;52.60
26479;DHT22;14163;-26.142;27.992;2023-07-31T22:20:50;14.40;52.90
26479;DHT22;14163;-26.142;27.992;2023-07-31T22:23:22;14.40;52.90
26479;DHT22;14163;-26.142;27.992;2023-07-31T22:25:52;14.30;52.70
26479;DHT22;14163;-26.142;27.992;2023-07-31T22:28:21;14.20;53.10
26479;DHT22;14163;-26.142;27.992;2023-07-31T22:30:51;14.20;53.40
26479;DHT22;14163;-26.142;27.992;2023-07-31T22:33:20;14.30;53.50
26479;DHT22;14163;-26.142;27.992;2023-07-31T22:35:50;14.20;53.10
26479;DHT22;14163;-26.142;27.992;2023-07-31T22:38:22;14.20;53.50
26479;DHT22;14163;-26.142;27.992;2023-07-31T22:40:52;14.10;53.40
26479;DHT22;14163;-26.142;27.992;2023-07-31T22:43:22;14.10;53.30
26479;DHT22;14163;-26.142;27.992;2023-07-31T22:45:52;14.00;53.10
26479;DHT22;14163;-26.142;27.992;2023-07-31T22:48:22;13.90;52.90
26479;DHT22;14163;-26.142;27.992;2023-07-31T22:50:52;13.80;52.90
26479;DHT22;14163;-26.142;27.992;2023-07-31T22:53:24;13.70;52.40
26479;DHT22;14163;-26.142;27.992;2023-07-31T22:55:54;13.80;52.80
26479;DHT22;14163;-26.142;27.992;2023-07-31T22:58:24;13.80;51.90
26479;DHT22;14163;-26.142;27.992;2023-07-31T23:01:02;13.80;51.70
26479;DHT22;14163;-26.142;27.992;2023-07-31T23:03:32;13.80;51.60
26479;DHT22;14163;-26.142;27.992;2023-07-31T23:06:02;13.70;51.30
26479;DHT22;14163;-26.142;27.992;2023-07-31T23:08:34;13.70;51.90
26479;DHT22;14163;-26.142;27.992;2023-07-31T23:11:04;13.60;51.60
26479;DHT22;14163;-26.142;27.992;2023-07-31T23:13:35;13.60;50.90
26479;DHT22;14163;-26.142;27.992;2023-07-31T23:16:05;13.60;50.90
26479;DHT22;14163;-26.142;27.992;2023-07-31T23:18:34;13.40;51.80
26479;DHT22;14163;-26.142;27.992;2023-07-31T23:21:04;13.40;52.10
26479;DHT22;14163;-26.142;27.992;2023-07-31T23:23:36;13.50;51.50
26479;DHT22;14163;-26.142;27.992;2023-07-31T23:26:06;13.50;51.70
26479;DHT22;14163;-26.142;27.992;2023-07-31T23:28:36;13.50;51.50
26479;DHT22;14163;-26.142;27.992;2023-07-31T23:31:06;13.50;51.30
26479;DHT22;14163;-26.142;27.992;2023-07-31T23:33:37;13.40;51.20
26479;DHT22;14163;-26.142;27.992;2023-07-31T23:36:11;13.30;51.10
26479;DHT22;14163;-26.142;27.992;2023-07-31T23:38:43;13.20;51.10
26479;DHT22;14163;-26.142;27.992;2023-07-31T23:41:13;13.10;51.40
26479;DHT22;14163;-26.142;27.992;2023-07-31T23:43:44;13.00;51.50
26479;DHT22;14163;-26.142;27.992;2023-07-31T23:46:13;13.00;51.60
26479;DHT22;14163;-26.142;27.992;2023-07-31T23:48:43;13.00;51.60
26479;DHT22;14163;-26.142;27.992;2023-07-31T23:51:13;12.90;51.60
26479;DHT22;14163;-26.142;27.992;2023-07-31T23:53:44;12.90;51.80
26479;DHT22;14163;-26.142;27.992;2023-07-31T23:56:14;12.90;51.80
26479;DHT22;14163;-26.142;27.992;2023-07-31T23:58:43;13.00;52.00
